createdAt,value
2017-08-08T00:00:54.633Z,4.50
2017-08-08T00:03:22.418Z,3.37
2017-08-08T00:05:50.213Z,2.90
2017-08-08T00:08:17.945Z,2.90
2017-08-08T00:10:45.678Z,4.80
2017-08-08T00:13:13.424Z,3.70
2017-08-08T00:15:41.120Z,4.00
2017-08-08T00:18:09.123Z,4.13
2017-08-08T00:20:36.838Z,4.17
2017-08-08T00:23:04.544Z,3.27
2017-08-08T00:25:32.270Z,3.67
2017-08-08T00:27:59.954Z,3.70
2017-08-08T00:30:27.677Z,4.07
2017-08-08T00:32:55.544Z,3.47
2017-08-08T00:35:23.318Z,4.77
2017-08-08T00:37:51.006Z,3.47
2017-08-08T00:40:18.742Z,3.47
2017-08-08T00:42:46.460Z,3.63
2017-08-08T00:45:14.214Z,4.17
2017-08-08T00:47:41.929Z,3.60
2017-08-08T00:50:10.564Z,3.33
2017-08-08T00:52:38.279Z,3.80
2017-08-08T00:55:06.278Z,4.40
2017-08-08T00:57:33.987Z,4.20
2017-08-08T01:00:01.679Z,3.47
2017-08-08T01:02:29.396Z,3.60
2017-08-08T01:04:57.131Z,3.30
2017-08-08T01:07:24.892Z,4.70
2017-08-08T01:09:52.603Z,4.03
2017-08-08T01:12:20.311Z,3.90
2017-08-08T01:14:48.148Z,4.33
2017-08-08T01:17:15.837Z,4.27
2017-08-08T01:19:43.673Z,4.30
2017-08-08T01:22:11.457Z,3.60
2017-08-08T01:24:39.185Z,4.67
2017-08-08T01:27:06.888Z,3.17
2017-08-08T01:29:34.634Z,4.10
2017-08-08T01:32:02.439Z,4.17
2017-08-08T01:34:30.148Z,4.53
2017-08-08T01:36:57.927Z,3.60
2017-08-08T01:39:25.642Z,4.33
2017-08-08T01:41:53.417Z,3.10
2017-08-08T01:44:21.136Z,3.87
2017-08-08T01:46:48.861Z,4.10
2017-08-08T01:49:16.621Z,3.50
2017-08-08T01:51:44.361Z,3.90
2017-08-08T01:54:12.121Z,5.03
2017-08-08T01:56:39.946Z,4.80
2017-08-08T01:59:07.694Z,3.43
2017-08-08T02:01:35.492Z,3.63
2017-08-08T02:04:03.249Z,3.90
2017-08-08T02:06:31.035Z,4.10
2017-08-08T02:08:58.816Z,3.40
2017-08-08T02:11:26.605Z,3.53
2017-08-08T02:13:54.304Z,4.23
2017-08-08T02:16:22.021Z,3.50
2017-08-08T02:18:49.797Z,4.13
2017-08-08T02:21:17.546Z,5.00
2017-08-08T02:23:45.249Z,4.00
2017-08-08T02:26:13.053Z,4.50
2017-08-08T02:28:40.749Z,4.17
2017-08-08T02:31:08.458Z,3.80
2017-08-08T02:33:36.149Z,4.87
2017-08-08T02:36:03.871Z,3.97
2017-08-08T02:38:31.666Z,3.60
2017-08-08T02:40:59.346Z,3.73
2017-08-08T02:43:27.172Z,4.30
2017-08-08T02:45:54.970Z,3.67
2017-08-08T02:48:22.754Z,4.60
2017-08-08T02:50:50.461Z,3.83
2017-08-08T02:53:18.192Z,4.47
2017-08-08T02:55:45.927Z,4.33
2017-08-08T02:58:13.736Z,4.03
2017-08-08T03:00:41.426Z,4.00
2017-08-08T03:03:09.161Z,3.77
2017-08-08T03:05:36.922Z,4.00
2017-08-08T03:08:04.589Z,3.70
2017-08-08T03:10:32.340Z,3.67
2017-08-08T03:13:00.023Z,3.70
2017-08-08T03:15:27.765Z,4.53
2017-08-08T03:17:55.468Z,6.10
2017-08-08T03:20:23.166Z,4.80
2017-08-08T03:22:50.904Z,4.63
2017-08-08T03:25:18.599Z,4.40
2017-08-08T03:27:46.473Z,3.70
2017-08-08T03:30:14.534Z,3.60
2017-08-08T03:32:42.294Z,4.67
2017-08-08T03:35:10.020Z,4.63
2017-08-08T03:37:37.747Z,4.50
2017-08-08T03:40:05.452Z,4.70
2017-08-08T03:42:33.151Z,4.40
2017-08-08T03:45:00.945Z,4.43
2017-08-08T03:47:28.712Z,4.53
2017-08-08T03:49:56.444Z,5.13
2017-08-08T03:52:24.177Z,4.63
2017-08-08T03:54:51.956Z,4.30
2017-08-08T03:57:19.680Z,4.50
2017-08-08T03:59:47.413Z,3.70
2017-08-08T04:02:15.192Z,3.90
2017-08-08T04:04:42.873Z,4.53
2017-08-08T04:07:10.647Z,3.70
2017-08-08T04:09:38.418Z,3.90
2017-08-08T04:12:06.220Z,3.90
2017-08-08T04:14:33.975Z,3.70
2017-08-08T04:17:01.745Z,4.17
2017-08-08T04:19:29.456Z,4.43
2017-08-08T04:21:57.196Z,3.60
2017-08-08T04:24:24.896Z,4.60
2017-08-08T04:26:52.585Z,4.80
2017-08-08T04:29:20.369Z,4.10
2017-08-08T04:31:48.142Z,4.07
2017-08-08T04:34:15.881Z,4.20
2017-08-08T04:36:43.571Z,4.00
2017-08-08T04:39:11.474Z,4.50
2017-08-08T04:41:39.176Z,4.27
2017-08-08T04:44:06.900Z,4.73
2017-08-08T04:46:34.656Z,3.93
2017-08-08T04:49:02.371Z,4.57
2017-08-08T04:51:30.453Z,5.90
2017-08-08T04:53:58.199Z,3.80
2017-08-08T04:56:25.905Z,5.13
2017-08-08T04:58:53.644Z,4.43
2017-08-08T05:01:21.448Z,4.73
2017-08-08T05:03:49.241Z,20.33
2017-08-08T05:06:17.058Z,19.20
2017-08-08T05:08:44.797Z,15.37
2017-08-08T05:11:12.571Z,16.00
2017-08-08T05:13:40.333Z,14.07
2017-08-08T05:16:08.035Z,12.27
2017-08-08T05:18:35.827Z,7.87
2017-08-08T05:21:03.567Z,10.47
2017-08-08T05:23:31.319Z,5.10
2017-08-08T05:25:59.026Z,4.73
2017-08-08T05:28:26.759Z,6.50
2017-08-08T05:30:54.555Z,10.50
2017-08-08T05:33:22.297Z,14.57
2017-08-08T05:35:50.135Z,12.03
2017-08-08T05:38:17.790Z,9.40
2017-08-08T05:40:45.510Z,5.07
2017-08-08T05:43:13.269Z,5.93
2017-08-08T05:45:41.051Z,4.20
2017-08-08T05:48:09.093Z,4.50
2017-08-08T05:50:36.801Z,5.53
2017-08-08T05:53:04.533Z,5.23
2017-08-08T05:55:32.309Z,5.20
2017-08-08T05:58:00.230Z,5.00
2017-08-08T06:00:27.959Z,4.50
2017-08-08T06:02:55.676Z,5.50
2017-08-08T06:05:23.437Z,3.97
2017-08-08T06:07:51.148Z,4.93
2017-08-08T06:10:18.929Z,4.37
2017-08-08T06:12:47.670Z,3.60
2017-08-08T06:15:15.405Z,3.70
2017-08-08T06:17:43.098Z,3.87
2017-08-08T06:20:10.878Z,4.00
2017-08-08T06:22:38.581Z,5.20
2017-08-08T06:25:06.304Z,4.67
2017-08-08T06:27:34.065Z,4.93
2017-08-08T06:30:01.772Z,5.27
2017-08-08T06:32:29.611Z,5.30
2017-08-08T06:34:57.414Z,4.70
2017-08-08T06:37:25.116Z,4.17
2017-08-08T06:39:52.830Z,4.63
2017-08-08T06:42:20.595Z,4.27
2017-08-08T06:44:48.305Z,4.57
2017-08-08T06:47:16.103Z,3.70
2017-08-08T06:49:43.801Z,3.60
2017-08-08T06:52:11.502Z,4.47
2017-08-08T06:54:39.290Z,5.37
2017-08-08T06:57:07.142Z,5.23
2017-08-08T06:59:34.868Z,3.80
2017-08-08T07:02:02.588Z,4.00
2017-08-08T07:04:30.772Z,3.20
2017-08-08T07:06:58.836Z,3.83
2017-08-08T07:09:26.639Z,5.27
2017-08-08T07:11:54.620Z,5.13
2017-08-08T07:14:22.457Z,4.93
2017-08-08T07:16:50.433Z,5.37
2017-08-08T07:19:18.248Z,3.93
2017-08-08T07:21:45.947Z,5.23
2017-08-08T07:24:13.722Z,4.10
2017-08-08T07:26:41.495Z,4.70
2017-08-08T07:29:09.288Z,5.37
2017-08-08T07:31:36.995Z,4.83
2017-08-08T07:34:04.809Z,4.50
2017-08-08T07:36:32.598Z,4.20
2017-08-08T07:39:00.317Z,4.10
2017-08-08T07:41:28.054Z,5.60
2017-08-08T07:43:55.770Z,5.07
2017-08-08T07:46:23.568Z,4.27
2017-08-08T07:48:51.307Z,4.00
2017-08-08T07:51:19.056Z,4.97
2017-08-08T07:53:47.610Z,4.10
2017-08-08T07:56:15.355Z,4.17
2017-08-08T07:58:43.110Z,4.80
2017-08-08T08:01:10.813Z,3.23
2017-08-08T08:03:38.731Z,4.10
2017-08-08T08:06:06.457Z,3.83
2017-08-08T08:08:34.196Z,3.73
2017-08-08T08:11:02.266Z,4.20
2017-08-08T08:13:29.956Z,4.23
2017-08-08T08:15:57.659Z,3.23
2017-08-08T08:18:25.447Z,3.13
2017-08-08T08:20:53.164Z,3.90
2017-08-08T08:23:20.891Z,3.70
2017-08-08T08:25:48.658Z,3.60
2017-08-08T08:28:16.424Z,2.60
2017-08-08T08:30:44.194Z,2.93
2017-08-08T08:33:11.969Z,3.50
2017-08-08T08:35:39.760Z,3.27
2017-08-08T08:38:07.465Z,3.87
2017-08-08T08:40:35.231Z,4.37
2017-08-08T08:43:02.990Z,3.37
2017-08-08T08:45:30.718Z,3.83
2017-08-08T08:47:58.661Z,3.77
2017-08-08T08:50:26.416Z,3.53
2017-08-08T08:52:54.419Z,4.30
2017-08-08T08:55:22.148Z,4.63
2017-08-08T08:57:50.077Z,4.20
2017-08-08T09:00:17.866Z,2.90
2017-08-08T09:02:45.611Z,4.00
2017-08-08T09:05:13.432Z,3.80
2017-08-08T09:07:41.173Z,3.80
2017-08-08T09:10:08.969Z,4.63
2017-08-08T09:12:36.732Z,3.57
2017-08-08T09:15:04.384Z,3.50
2017-08-08T09:17:32.233Z,3.90
2017-08-08T09:19:59.935Z,3.07
2017-08-08T09:22:27.728Z,3.57
2017-08-08T09:24:55.445Z,3.13
2017-08-08T09:27:23.291Z,3.60
2017-08-08T09:29:51.002Z,3.63
2017-08-08T09:32:19.869Z,3.23
2017-08-08T09:34:49.652Z,3.17
2017-08-08T09:37:17.416Z,3.77
2017-08-08T09:39:45.530Z,3.57
2017-08-08T09:42:13.446Z,3.50
2017-08-08T09:44:41.147Z,3.17
2017-08-08T09:47:08.862Z,2.90
2017-08-08T09:49:36.619Z,3.03
2017-08-08T09:52:04.351Z,3.30
2017-08-08T09:54:32.976Z,3.27
2017-08-08T09:57:00.665Z,3.13
2017-08-08T09:59:28.361Z,2.97
2017-08-08T10:01:56.187Z,3.27
2017-08-08T10:04:23.956Z,2.90
2017-08-08T10:06:51.690Z,3.30
2017-08-08T10:09:19.418Z,3.23
2017-08-08T10:11:47.131Z,3.30
2017-08-08T10:14:15.091Z,3.03
2017-08-08T10:16:42.790Z,3.03
2017-08-08T10:19:10.548Z,2.93
2017-08-08T10:21:38.327Z,3.50
2017-08-08T10:24:06.092Z,3.27
2017-08-08T10:26:33.806Z,2.47
2017-08-08T10:29:01.523Z,2.43
2017-08-08T10:31:29.300Z,3.00
2017-08-08T10:33:57.069Z,3.20
2017-08-08T10:36:24.793Z,3.20
2017-08-08T10:38:52.571Z,2.77
2017-08-08T10:41:20.301Z,3.00
2017-08-08T10:43:47.978Z,3.50
2017-08-08T10:46:15.689Z,3.10
2017-08-08T10:48:43.443Z,2.80
2017-08-08T10:51:11.149Z,3.63
2017-08-08T10:53:38.945Z,3.70
2017-08-08T10:56:06.695Z,3.20
2017-08-08T10:58:34.434Z,2.60
2017-08-08T11:01:02.198Z,2.90
2017-08-08T11:03:29.885Z,3.53
2017-08-08T11:05:57.611Z,3.23
2017-08-08T11:08:25.487Z,2.40
2017-08-08T11:10:53.204Z,2.50
2017-08-08T11:13:20.883Z,2.13
2017-08-08T11:15:48.646Z,3.77
2017-08-08T11:18:16.359Z,2.70
2017-08-08T11:20:44.103Z,3.60
2017-08-08T11:23:11.899Z,3.17
2017-08-08T11:25:39.643Z,3.10
2017-08-08T11:28:07.615Z,3.27
2017-08-08T11:30:35.418Z,3.13
2017-08-08T11:33:03.516Z,3.27
2017-08-08T11:35:31.310Z,3.50
2017-08-08T11:37:59.829Z,3.13
2017-08-08T11:40:27.577Z,3.13
2017-08-08T11:42:55.430Z,2.93
2017-08-08T11:45:23.166Z,3.10
2017-08-08T11:47:50.932Z,2.47
2017-08-08T11:50:18.643Z,2.67
2017-08-08T11:52:46.513Z,3.17
2017-08-08T11:55:14.288Z,2.83
2017-08-08T11:57:42.126Z,2.90
2017-08-08T12:00:09.874Z,3.40
2017-08-08T12:02:37.601Z,3.30
2017-08-08T12:05:05.345Z,3.73
2017-08-08T12:07:33.065Z,3.30
2017-08-08T12:10:00.906Z,3.13
2017-08-08T12:12:28.714Z,5.30
2017-08-08T12:14:56.413Z,3.67
2017-08-08T12:17:24.203Z,2.80
2017-08-08T12:19:51.888Z,3.80
2017-08-08T12:22:19.807Z,3.00
2017-08-08T12:24:47.560Z,2.73
2017-08-08T12:27:15.358Z,3.03
2017-08-08T12:29:43.128Z,2.90
2017-08-08T12:32:10.901Z,3.20
2017-08-08T12:34:38.678Z,3.70
2017-08-08T12:37:06.484Z,3.37
2017-08-08T12:39:34.274Z,3.80
2017-08-08T12:42:02.042Z,4.30
2017-08-08T12:44:29.748Z,2.80
2017-08-08T12:46:57.658Z,3.97
2017-08-08T12:49:25.376Z,3.67
2017-08-08T12:51:53.076Z,2.67
2017-08-08T12:54:20.854Z,3.83
2017-08-08T12:56:48.605Z,4.37
2017-08-08T12:59:16.389Z,3.33
2017-08-08T13:01:44.175Z,3.43
2017-08-08T13:04:11.961Z,3.57
2017-08-08T13:06:39.755Z,3.70
2017-08-08T13:09:07.545Z,3.70
2017-08-08T13:11:35.258Z,3.27
2017-08-08T13:14:02.943Z,3.23
2017-08-08T13:16:30.675Z,4.57
2017-08-08T13:18:58.363Z,3.40
2017-08-08T13:21:26.426Z,3.70
2017-08-08T13:23:54.189Z,3.30
2017-08-08T13:26:21.877Z,3.23
2017-08-08T13:28:49.665Z,3.03
2017-08-08T13:31:17.372Z,3.40
2017-08-08T13:33:45.096Z,2.77
2017-08-08T13:36:12.990Z,3.13
2017-08-08T13:38:40.716Z,3.93
2017-08-08T13:41:08.499Z,3.37
2017-08-08T13:43:36.373Z,3.80
2017-08-08T13:46:04.101Z,2.80
2017-08-08T13:48:31.810Z,4.00
2017-08-08T13:50:59.528Z,3.10
2017-08-08T13:53:27.223Z,3.10
2017-08-08T13:55:54.982Z,3.10
2017-08-08T13:58:22.696Z,9.70
2017-08-08T14:00:50.450Z,4.13
2017-08-08T14:03:18.251Z,3.07
2017-08-08T14:05:46.046Z,3.37
2017-08-08T14:08:13.815Z,3.80
2017-08-08T14:10:41.607Z,3.73
2017-08-08T14:13:09.314Z,3.10
2017-08-08T14:15:38.034Z,2.93
2017-08-08T14:18:05.997Z,3.83
2017-08-08T14:20:33.735Z,3.60
2017-08-08T14:23:01.482Z,3.20
2017-08-08T14:25:29.330Z,3.10
2017-08-08T14:27:57.043Z,3.30
2017-08-08T14:30:24.912Z,3.80
2017-08-08T14:32:52.695Z,2.97
2017-08-08T14:35:20.451Z,3.50
2017-08-08T14:37:48.233Z,3.70
2017-08-08T14:40:15.999Z,4.10
2017-08-08T14:42:43.756Z,2.60
2017-08-08T14:45:11.514Z,3.50
2017-08-08T14:47:39.302Z,3.83
2017-08-08T14:50:07.044Z,3.23
2017-08-08T14:52:34.752Z,3.27
2017-08-08T14:55:02.537Z,3.60
2017-08-08T14:57:30.310Z,4.23
2017-08-08T14:59:58.060Z,4.00
2017-08-08T15:02:25.916Z,4.10
2017-08-08T15:04:53.657Z,4.20
2017-08-08T15:07:21.570Z,3.73
2017-08-08T15:09:51.372Z,4.00
2017-08-08T15:12:19.190Z,3.90
2017-08-08T15:14:46.932Z,3.70
2017-08-08T15:17:14.679Z,4.17
2017-08-08T15:19:42.392Z,3.43
2017-08-08T15:22:10.194Z,3.60
2017-08-08T15:24:37.995Z,4.80
2017-08-08T15:27:05.956Z,4.20
2017-08-08T15:29:33.697Z,4.30
2017-08-08T15:32:01.460Z,4.63
2017-08-08T15:34:29.343Z,4.67
2017-08-08T15:36:57.101Z,4.00
2017-08-08T15:39:24.810Z,4.33
2017-08-08T15:41:52.576Z,4.20
2017-08-08T15:44:20.293Z,3.40
2017-08-08T15:46:48.107Z,4.43
2017-08-08T15:49:15.789Z,3.73
2017-08-08T15:51:44.708Z,3.80
2017-08-08T15:54:12.474Z,4.30
2017-08-08T15:56:40.195Z,4.10
2017-08-08T15:59:07.949Z,4.30
2017-08-08T16:01:36.059Z,4.10
2017-08-08T16:04:03.744Z,4.23
2017-08-08T16:06:31.538Z,4.73
2017-08-08T16:08:59.306Z,5.77
2017-08-08T16:11:27.634Z,4.67
2017-08-08T16:13:55.517Z,4.30
2017-08-08T16:16:24.264Z,3.70
2017-08-08T16:18:52.017Z,4.70
2017-08-08T16:21:19.785Z,4.20
2017-08-08T16:23:47.547Z,4.30
2017-08-08T16:26:15.290Z,4.37
2017-08-08T16:28:43.065Z,5.00
2017-08-08T16:31:10.980Z,4.10
2017-08-08T16:33:38.781Z,5.10
2017-08-08T16:36:06.549Z,4.27
2017-08-08T16:38:34.292Z,4.40
2017-08-08T16:41:01.976Z,5.37
2017-08-08T16:43:29.740Z,4.23
2017-08-08T16:45:57.569Z,4.77
2017-08-08T16:48:25.963Z,4.60
2017-08-08T16:50:53.746Z,4.60
2017-08-08T16:53:22.372Z,4.70
2017-08-08T16:55:50.101Z,4.77
2017-08-08T16:58:18.051Z,4.63
2017-08-08T17:00:45.741Z,4.80
2017-08-08T17:03:14.632Z,4.83
2017-08-08T17:05:42.516Z,5.60
2017-08-08T17:08:10.211Z,4.73
2017-08-08T17:10:37.932Z,4.00
2017-08-08T17:13:05.700Z,4.57
2017-08-08T17:15:33.427Z,5.20
2017-08-08T17:18:01.171Z,4.47
2017-08-08T17:20:29.024Z,4.70
2017-08-08T17:22:56.742Z,5.77
2017-08-08T17:25:24.523Z,5.07
2017-08-08T17:27:52.313Z,5.33
2017-08-08T17:30:20.023Z,5.43
2017-08-08T17:32:47.892Z,4.37
2017-08-08T17:35:15.617Z,5.20
2017-08-08T17:37:43.333Z,5.03
2017-08-08T17:40:11.093Z,5.30
2017-08-08T17:42:38.812Z,5.47
2017-08-08T17:45:06.591Z,4.67
2017-08-08T17:47:34.313Z,5.03
2017-08-08T17:50:02.118Z,5.27
2017-08-08T17:52:29.878Z,6.27
2017-08-08T17:54:57.635Z,4.90
2017-08-08T17:57:25.366Z,5.23
2017-08-08T17:59:53.134Z,4.53
2017-08-08T18:02:20.905Z,5.23
2017-08-08T18:04:48.721Z,5.73
2017-08-08T18:07:16.489Z,5.57
2017-08-08T18:09:44.387Z,5.57
2017-08-08T18:12:12.100Z,5.20
2017-08-08T18:14:39.856Z,5.37
2017-08-08T18:17:07.680Z,5.70
2017-08-08T18:19:35.609Z,5.93
2017-08-08T18:22:03.356Z,6.82
2017-08-08T18:24:31.161Z,6.80
2017-08-08T18:26:58.936Z,6.67
2017-08-08T18:29:26.631Z,6.20
2017-08-08T18:31:54.439Z,5.40
2017-08-08T18:34:22.148Z,5.80
2017-08-08T18:36:50.609Z,5.40
2017-08-08T18:39:18.584Z,5.67
2017-08-08T18:41:46.452Z,6.57
2017-08-08T18:44:14.301Z,5.43
2017-08-08T18:46:42.230Z,5.90
2017-08-08T18:49:10.781Z,6.27
2017-08-08T18:51:38.541Z,6.57
2017-08-08T18:54:06.643Z,6.00
2017-08-08T18:56:34.536Z,6.27
2017-08-08T18:59:03.489Z,5.40
2017-08-08T19:01:31.334Z,5.40
2017-08-08T19:03:59.203Z,6.13
2017-08-08T19:06:26.982Z,6.37
2017-08-08T19:08:54.764Z,5.40
2017-08-08T19:11:22.502Z,6.03
2017-08-08T19:13:51.919Z,5.83
2017-08-08T19:16:20.013Z,5.87
2017-08-08T19:18:48.829Z,5.93
2017-08-08T19:21:16.588Z,5.63
2017-08-08T19:23:44.464Z,5.73
2017-08-08T19:26:12.312Z,5.87
2017-08-08T19:28:40.056Z,5.33
2017-08-08T19:31:08.001Z,6.83
2017-08-08T19:33:35.938Z,5.60
2017-08-08T19:36:04.557Z,5.80
2017-08-08T19:38:32.356Z,6.40
2017-08-08T19:41:00.479Z,6.23
2017-08-08T19:43:28.305Z,6.10
2017-08-08T19:45:56.119Z,6.10
2017-08-08T19:48:23.893Z,6.20
2017-08-08T19:50:51.673Z,5.10
2017-08-08T19:53:19.471Z,5.80
2017-08-08T19:55:48.143Z,5.80
2017-08-08T19:58:15.917Z,5.67
2017-08-08T20:00:43.779Z,6.30
2017-08-08T20:03:11.735Z,6.13
2017-08-08T20:05:39.512Z,7.20
2017-08-08T20:08:07.249Z,6.37
2017-08-08T20:10:35.000Z,6.00
2017-08-08T20:13:02.782Z,6.57
2017-08-08T20:15:30.491Z,6.37
2017-08-08T20:17:58.210Z,6.40
2017-08-08T20:20:26.095Z,6.83
2017-08-08T20:22:53.894Z,5.87
2017-08-08T20:25:22.492Z,6.93
2017-08-08T20:27:50.344Z,6.33
2017-08-08T20:30:18.119Z,6.50
2017-08-08T20:32:46.035Z,6.33
2017-08-08T20:35:13.799Z,6.83
2017-08-08T20:37:41.548Z,6.30
2017-08-08T20:40:09.482Z,6.93
2017-08-08T20:42:37.389Z,7.87
2017-08-08T20:45:05.093Z,6.17
2017-08-08T20:47:32.867Z,5.73
2017-08-08T20:50:00.590Z,6.00
2017-08-08T20:52:28.376Z,6.50
2017-08-08T20:54:56.211Z,5.70
2017-08-08T20:57:23.987Z,6.50
2017-08-08T20:59:51.925Z,5.80
2017-08-08T21:02:19.634Z,6.57
2017-08-08T21:04:47.355Z,6.90
2017-08-08T21:07:15.117Z,6.50
2017-08-08T21:09:42.878Z,6.10
2017-08-08T21:12:10.584Z,7.47
2017-08-08T21:14:38.355Z,7.37
2017-08-08T21:17:06.160Z,7.33
2017-08-08T21:19:33.900Z,6.90
2017-08-08T21:22:01.649Z,7.80
2017-08-08T21:24:29.370Z,7.57
2017-08-08T21:26:57.114Z,6.60
2017-08-08T21:29:24.822Z,6.50
2017-08-08T21:31:52.582Z,7.30
2017-08-08T21:34:20.360Z,7.23
2017-08-08T21:36:48.179Z,7.40
2017-08-08T21:39:15.894Z,7.40
2017-08-08T21:41:43.617Z,6.77
2017-08-08T21:44:11.406Z,7.20
2017-08-08T21:46:39.163Z,6.47
2017-08-08T21:49:06.949Z,8.27
2017-08-08T21:51:34.688Z,7.37
2017-08-08T21:54:02.500Z,8.03
2017-08-08T21:56:30.296Z,7.50
2017-08-08T21:58:58.037Z,6.87
2017-08-08T22:01:25.786Z,7.77
2017-08-08T22:03:53.519Z,7.87
2017-08-08T22:06:21.281Z,6.50
2017-08-08T22:08:49.059Z,7.27
2017-08-08T22:11:16.732Z,7.40
2017-08-08T22:13:44.436Z,7.60
2017-08-08T22:16:12.204Z,7.27
2017-08-08T22:18:39.969Z,7.17
2017-08-08T22:21:07.672Z,7.37
2017-08-08T22:23:35.504Z,7.47
2017-08-08T22:26:03.723Z,7.07
2017-08-08T22:28:32.398Z,7.00
2017-08-08T22:31:00.145Z,7.10
2017-08-08T22:33:27.836Z,7.10
2017-08-08T22:35:55.579Z,7.63
2017-08-08T22:38:23.376Z,7.40
2017-08-08T22:40:51.080Z,8.20
2017-08-08T22:43:18.873Z,7.07
2017-08-08T22:45:46.563Z,7.67
2017-08-08T22:48:14.302Z,7.87
2017-08-08T22:50:42.055Z,6.57
2017-08-08T22:53:09.785Z,7.47
2017-08-08T22:55:37.524Z,8.07
2017-08-08T22:58:05.322Z,6.80
2017-08-08T23:00:33.083Z,7.67
2017-08-08T23:03:01.558Z,7.50
2017-08-08T23:05:29.308Z,7.17
2017-08-08T23:07:56.998Z,7.60
2017-08-08T23:10:24.786Z,6.90
2017-08-08T23:12:52.481Z,7.57
2017-08-08T23:15:20.235Z,7.73
2017-08-08T23:17:47.951Z,8.77
2017-08-08T23:20:15.803Z,8.60
2017-08-08T23:22:43.507Z,7.53
2017-08-08T23:25:11.209Z,7.70
2017-08-08T23:27:38.952Z,7.60
2017-08-08T23:30:06.626Z,6.87
2017-08-08T23:32:34.678Z,5.90
2017-08-08T23:35:02.391Z,6.60
2017-08-08T23:37:35.778Z,6.03
2017-08-08T23:40:03.570Z,6.10
2017-08-08T23:42:31.666Z,7.47
2017-08-08T23:44:59.390Z,6.53
2017-08-08T23:47:27.105Z,7.07
2017-08-08T23:49:55.016Z,9.17
2017-08-08T23:52:22.727Z,6.17
2017-08-08T23:54:50.455Z,6.53
2017-08-08T23:57:18.220Z,7.40
2017-08-08T23:59:45.943Z,7.00
